Weather observations for the past three days for
Montevideo-Chippewa County Airport
Imperial (Metric)
Date Time (cdt) Wind (mph) Vis. (mi.) Weather Sky Cond. Temperature (ºF) Relative Humidity Wind Chill (°F) Heat Index (°F) Pressure Precipitation (in)
Air Dwpt 6 hour altimeter (in) sea level (mb) 1 hr 3 hr 6 hr
Max. Min.
31 15:35 W 8 10.00 Fair CLR 84.2 55.4 37% 83 29.92 0.0
31 15:15 NW 7 10.00 Fair CLR 84.2 57.2 40% 83 29.92 0.0
31 14:55 NW 7 10.00 Fair CLR 84.2 59 43% 84 29.92 0.0
31 14:35 N 8 10.00 Fair CLR 82.4 57.2 42% 82 29.92 0.0
31 14:15 W 5 10.00 Fair CLR 82.4 55.4 40% 82 29.92 0.0
31 13:55 NW 5 10.00 Fair CLR 82.4 60.8 48% 83 29.92 0.0
31 13:35 NW 8 10.00 Fair CLR 82.4 57.2 42% 82 29.92 0.0
31 13:15 NW 9 10.00 Fair CLR 82.4 60.8 48% 83 29.91 0.0
31 12:55 NW 6 10.00 Fair CLR 80.6 60.8 51% 81 29.91 0.0
31 12:35 N 7 10.00 Fair CLR 80.6 59 48% 81 29.92 0.0
31 12:15 W 5 10.00 Fair CLR 78.8 60.8 54% 80 29.92 0.0
31 11:55 NW 9 10.00 Fair CLR 78.8 60.8 54% 80 29.92 0.0
31 11:35 NW 9 10.00 Fair CLR 77 62.6 61% 79 29.92 0.0
31 11:15 N 9 10.00 Fair CLR 75.2 62.6 65% 77 29.92 0.0
31 10:55 NW 10 10.00 Fair CLR 75.2 64.4 69% 77 29.92 0.0
31 10:35 NW 12 10.00 Fair CLR 73.4 64.4 74% 29.91 0.0
31 10:15 NW 9 10.00 Fair CLR 73.4 64.4 74% 29.91 0.0
31 09:55 NW 8 10.00 Fair CLR 69.8 64.4 83% 29.91 0.0
31 09:35 NW 10 10.00 Fair CLR 69.8 64.4 83% 29.91 0.0
31 09:15 N 13 10.00 Partly Cloudy SCT003 71.6 64.4 78% 29.9 0.0
31 08:55 NW 12 10.00 Fair CLR 69.8 64.4 83% 29.89 0.0
31 08:35 NW 10 10.00 Fair CLR 69.8 64.4 83% 29.88 0.0
31 08:15 NW 10 10.00 Fair CLR 68 64.4 88% 29.87 0.0
31 07:55 NW 10 10.00 Fair CLR 68 64.4 88% 29.86 0.0
31 07:35 NW 8 10.00 Fair CLR 68 64.4 88% 29.85 0.0
31 07:15 NW 7 10.00 Fair CLR 68 66.2 94% 29.84 0.0
31 06:55 W 6 10.00 Fair CLR 68 66.2 94% 29.83 0.0
31 06:35 W 6 4.00 Fog/Mist CLR 69.8 68 94% 29.82 0.0
31 06:15 W 5 7.00 Fair CLR 69.8 69.8 100% 29.8 0.0
31 05:55 W 5 5.00 Fog/Mist CLR 69.8 69.8 100% 29.8 0.0
31 05:35 W 3 5.00 Fog/Mist CLR 69.8 69.8 100% 29.79 0.0
31 05:15 W 3 7.00 Fair CLR 71.6 69.8 94% 29.78 0.0
31 04:55 W 3 7.00 Fair CLR 71.6 69.8 94% 29.78 0.0
31 04:35 Calm 7.00 Fair CLR 71.6 69.8 94% 29.78 0.0
31 04:15 NW 3 10.00 Fair CLR 71.6 69.8 94% 29.77 0.0
31 03:55 NW 6 10.00 Fair CLR 71.6 69.8 94% 29.76 0.0
31 03:35 W 6 10.00 Fair CLR 71.6 69.8 94% 29.76 0.0
31 03:15 W 3 10.00 Fair CLR 73.4 69.8 89% 29.75 0.0
31 02:55 SW 8 10.00 Fair CLR 73.4 69.8 89% 29.75 0.0
31 02:35 SW 5 10.00 Fair CLR 71.6 69.8 94% 29.73 0.0
31 02:15 Calm 10.00 Fair CLR 73.4 71.6 94% 29.74 0.0
31 01:55 SW 5 10.00 Fair CLR 73.4 71.6 94% 29.73 0.0
31 01:35 S 6 10.00 Fair CLR 75.2 71.6 89% 75 29.72 0.0
31 01:15 S 6 10.00 Fair CLR 75.2 71.6 89% 75 29.72 0.0
31 00:55 S 5 10.00 Fair CLR 75.2 71.6 89% 75 29.72 0.0
31 00:35 S 6 10.00 Fair CLR 75.2 71.6 89% 75 29.71 0.0
31 00:15 S 5 10.00 Fair CLR 75.2 73.4 94% 74 29.71 0.0
30 23:55 S 6 10.00 Fair CLR 77 73.4 89% 78 29.71 0.0
30 23:35 S 7 10.00 Fair CLR 77 73.4 89% 78 29.72 0.0
30 23:15 S 5 10.00 Fair CLR 77 73.4 89% 78 29.73 0.0
30 22:55 S 3 10.00 Fair CLR 78.8 73.4 84% 82 29.73 0.0
30 22:35 S 6 10.00 Fair CLR 78.8 73.4 84% 82 29.73 0.0
30 22:15 SE 6 10.00 Fair CLR 78.8 73.4 84% 82 29.72 0.0
30 21:55 SE 8 10.00 Fair CLR 80.6 73.4 79% 85 29.71 0.0
30 21:35 S 3 10.00 Fair CLR 80.6 73.4 79% 85 29.71 0.0
30 21:15 SE 9 10.00 Fair CLR 78.8 73.4 84% 82 29.69 0.0
30 20:55 SE 9 10.00 Fair CLR 78.8 73.4 84% 82 29.69 0.0
30 20:35 E 10 10.00 Fair CLR 80.6 73.4 79% 85 29.69 0.0
30 20:15 E 10 10.00 Fair CLR 80.6 75.2 84% 86 29.69 0.0
30 19:55 E 10 10.00 Fair CLR 80.6 75.2 84% 86 29.69 0.0
30 19:35 E 8 10.00 Fair CLR 80.6 75.2 84% 86 29.7 0.0
30 19:15 E 7 10.00 Fair CLR 82.4 75.2 79% 89 29.71 0.0
30 18:55 E 9 10.00 Fair CLR 82.4 75.2 79% 89 29.71 0.0
30 18:35 E 10 10.00 Fair CLR 82.4 75.2 79% 89 29.71 0.0
30 18:15 E 12 10.00 Fair CLR 84.2 75.2 74% 92 29.71 0.0
30 17:55 E 12 G 17 10.00 Fair CLR 86 75.2 70% 95 29.72 0.0
30 17:35 E 13 10.00 Fair CLR 86 75.2 70% 95 29.71 0.0
30 17:15 E 10 10.00 Fair CLR 86 75.2 70% 95 29.72 0.0
30 16:55 E 9 10.00 Fair CLR 86 75.2 70% 95 29.72 0.0
30 16:35 E 12 10.00 Partly Cloudy SCT003 84.2 73.4 70% 91 29.72 0.0
30 16:15 E 12 10.00 Partly Cloudy SCT003 SCT026 86 75.2 70% 95 29.72 0.0
30 15:55 E 10 10.00 Partly Cloudy SCT003 86 73.4 66% 93 29.72 0.0
30 15:35 SE 10 10.00 Partly Cloudy SCT003 84.2 73.4 70% 91 29.72 0.0
30 15:15 SE 13 G 20 10.00 Mostly Cloudy BKN003 84.2 73.4 70% 91 29.73 0.0
30 14:55 E 13 10.00 Mostly Cloudy BKN003 BKN022 82.4 73.4 74% 88 29.73 0.0
30 14:35 E 15 10.00 Mostly Cloudy BKN003 BKN020 82.4 73.4 74% 88 29.74 0.0
30 14:15 E 15 10.00 Mostly Cloudy BKN003 BKN020 82.4 73.4 74% 88 29.75 0.0
30 13:55 SE 15 10.00 Mostly Cloudy SCT003 BKN018 80.6 71.6 74% 85 29.75 0.0
30 13:35 SE 14 G 18 10.00 Partly Cloudy SCT003 SCT016 78.8 71.6 79% 82 29.76 0.0
30 13:15 E 15 10.00 Overcast SCT003 OVC016 77 71.6 83% 78 29.75 0.0
30 12:55 E 14 G 21 10.00 Overcast SCT003 OVC014 77 71.6 83% 78 29.76 0.0
30 12:35 E 13 G 22 10.00 Overcast SCT003 OVC014 75.2 69.8 83% 75 29.77 0.0
30 12:15 SE 16 G 21 10.00 Overcast SCT003 OVC012 77 69.8 79% 79 29.77 0.0
30 11:55 E 17 10.00 Overcast OVC012 75.2 69.8 83% 75 29.78 0.0
30 11:35 E 13 10.00 NULL NULL 75.2 69.8 83% 75 29.78 0.0
30 11:15 E 12 10.00 Overcast SCT003 OVC010 73.4 69.8 89% 29.78 0.0
30 10:55 E 12 10.00 Overcast SCT003 OVC010 71.6 69.8 94% 29.78 0.0
30 10:35 E 10 10.00 Thunderstorm in Vicinity OVC008 71.6 68 88% 29.78 0.0
30 10:15 E 12 10.00 Overcast OVC006 71.6 68 88% 29.78 0.0
30 09:55 E 13 10.00 Overcast OVC006 71.6 68 88% 29.78 0.0
30 09:35 E 12 7.00 Overcast OVC006 69.8 68 94% 29.77 0.0
30 09:15 E 12 7.00 Overcast OVC004 69.8 66.2 88% 29.77 0.0
30 08:55 E 9 7.00 Overcast OVC004 69.8 68 94% 29.77 0.0
30 08:35 E 9 7.00 Overcast OVC004 69.8 68 94% 29.78 0.0
30 08:15 E 8 7.00 Overcast OVC004 68 66.2 94% 29.77 0.0
30 07:55 E 12 5.00 Fog/Mist BKN004 68 66.2 94% 29.77 0.0
30 07:35 SE 7 4.00 Fog/Mist CLR 66.2 66.2 100% 29.78 0.0
30 07:15 E 6 4.00 Fog/Mist CLR 66.2 66.2 100% 29.78 0.0
30 06:55 E 5 5.00 Fog/Mist CLR 66.2 66.2 100% 29.77 0.0
30 06:35 E 5 7.00 Fair CLR 66.2 66.2 100% 29.77 0.0
30 06:15 E 7 7.00 Fair CLR 66.2 66.2 100% 29.77 0.0
30 05:55 E 5 7.00 Fair CLR 66.2 66.2 100% 29.77 0.0
30 05:35 SE 6 7.00 Fair CLR 68 66.2 94% 29.77 0.0
30 05:15 E 7 7.00 Fair CLR 68 66.2 94% 29.78 0.0
30 04:55 E 6 7.00 Fair CLR 68 66.2 94% 29.79 0.0
30 04:35 SE 7 7.00 Fair CLR 68 66.2 94% 29.78 0.0
30 04:15 E 6 7.00 Fair CLR 68 66.2 94% 29.78 0.0
30 03:55 E 7 7.00 Fair CLR 68 66.2 94% 29.77 0.0
30 03:35 E 8 10.00 Fair CLR 68 66.2 94% 29.77 0.0
30 03:15 E 7 10.00 Fair CLR 68 66.2 94% 29.78 0.0
30 02:55 E 8 7.00 Fair CLR 68 66.2 94% 29.77 0.0
30 02:35 E 7 10.00 Fair CLR 68 66.2 94% 29.78 0.0
30 02:15 E 6 10.00 Fair CLR 68 66.2 94% 29.78 0.0
30 01:55 E 6 10.00 Fair CLR 68 66.2 94% 29.79 0.0
30 01:35 SE 5 10.00 Fair CLR 68 66.2 94% 29.81 0.0
30 01:15 E 5 10.00 Fair CLR 69.8 66.2 88% 29.81 0.0
30 00:55 E 7 10.00 Fair CLR 69.8 66.2 88% 29.8 0.0
30 00:35 E 6 10.00 Fair CLR 69.8 66.2 88% 29.8 0.0
30 00:15 E 10 10.00 Fair CLR 69.8 66.2 88% 29.79 0.0
29 23:55 E 9 10.00 Fair CLR 71.6 66.2 83% 29.8 0.0
29 23:35 E 10 10.00 Fair CLR 71.6 66.2 83% 29.8 0.0
29 23:15 E 9 10.00 Fair CLR 71.6 66.2 83% 29.81 0.0
29 22:55 E 8 10.00 Fair CLR 71.6 66.2 83% 29.82 0.0
29 22:35 E 8 10.00 Fair CLR 71.6 68 88% 29.81 0.0
29 22:15 E 8 10.00 Fair CLR 71.6 68 88% 29.83 0.0
29 21:55 E 8 10.00 Fair CLR 71.6 68 88% 29.82 0.0
29 21:35 E 9 10.00 Fair CLR 71.6 68 88% 29.81 0.0
29 21:15 E 9 10.00 Fair CLR 71.6 68 88% 29.81 0.0
29 20:55 E 9 10.00 Fair CLR 73.4 68 83% 29.79 0.0
29 20:35 E 9 10.00 Fair CLR 73.4 69.8 89% 29.79 0.0
29 20:15 E 9 10.00 Fair CLR 73.4 69.8 89% 29.79 0.0
29 19:55 E 7 10.00 Fair CLR 75.2 69.8 83% 75 29.78 0.0
29 19:35 E 6 10.00 Fair CLR 75.2 69.8 83% 75 29.79 0.0
29 19:15 E 6 10.00 Fair CLR 77 69.8 79% 79 29.79 0.0
29 18:55 E 7 10.00 Fair CLR 78.8 69.8 74% 81 29.78 0.0
29 18:35 E 9 10.00 Fair CLR 78.8 68 70% 81 29.78 0.0
29 18:15 E 9 10.00 Fair CLR 80.6 68 66% 83 29.77 0.0
29 17:55 E 7 10.00 Fair CLR 80.6 69.8 70% 84 29.78 0.0
29 17:35 E 9 10.00 Fair CLR 80.6 68 66% 83 29.77 0.0
29 17:15 SE 9 10.00 Fair CLR 82.4 69.8 66% 86 29.77 0.0
29 16:55 E 6 G 9 10.00 Fair CLR 80.6 68 66% 83 29.77 0.0
29 16:35 E 7 10.00 Fair CLR 82.4 69.8 66% 86 29.77 0.0
29 16:15 NE 7 10.00 Fair CLR 80.6 68 66% 83 29.78 0.0
29 15:55 E 6 10.00 Fair CLR 80.6 69.8 70% 84 29.78 0.0
29 15:35 E 3 10.00 Fair CLR 80.6 68 66% 83 29.79 0.0
29 15:15 SE 3 10.00 Fair CLR 0 0 0% 0 0.0
29 14:55 Calm 10.00 Fair CLR 80.6 68 66% 83 29.79 0.0
29 14:35 Calm 10.00 Fair CLR 80.6 68 66% 83 29.79 0.0
29 14:15 SE 3 10.00 Fair CLR 78.8 66.2 65% 81 29.79 0.0
29 13:55 S 3 10.00 Fair CLR 78.8 66.2 65% 81 29.79 0.0
29 13:35 S 3 10.00 Fair CLR 80.6 66.2 62% 83 29.79 0.0
29 13:15 S 3 10.00 Fair CLR 78.8 66.2 65% 81 29.79 0.0
29 12:55 SE 8 10.00 Fair CLR 78.8 68 70% 81 29.79 0.0
29 12:35 S 8 10.00 Fair CLR 78.8 66.2 65% 81 29.79 0.0
29 12:15 S 8 10.00 Fair CLR 77 66.2 69% 79 29.79 0.0
29 11:55 SE 8 10.00 Fair CLR 75.2 66.2 74% 77 29.8 0.0
29 11:35 SE 8 10.00 Fair CLR 75.2 66.2 74% 77 29.81 0.0
29 11:15 SE 9 10.00 Fair CLR 75.2 66.2 74% 77 29.82 0.0
29 10:55 SE 13 10.00 Fair CLR 73.4 66.2 78% 29.83 0.0
29 10:35 E 12 10.00 Fair CLR 73.4 66.2 78% 29.83 0.0
29 10:15 E 10 10.00 Fair CLR 71.6 66.2 83% 29.84 0.0
29 09:55 E 8 10.00 Fair CLR 71.6 66.2 83% 29.83 0.0
29 09:35 SE 7 10.00 Fair CLR 71.6 66.2 83% 29.83 0.0
29 09:15 SE 6 10.00 Fair CLR 69.8 66.2 88% 29.83 0.0
29 08:55 SE 6 10.00 Fair CLR 69.8 66.2 88% 29.83 0.0
29 08:35 SE 7 10.00 Fair CLR 69.8 66.2 88% 29.84 0.0
29 08:15 SE 7 10.00 Fair CLR 68 66.2 94% 29.84 0.0
29 07:55 SE 7 10.00 Fair CLR 68 64.4 88% 29.84 0.0
29 07:35 SE 10 G 17 10.00 Fair CLR 66.2 64.4 94% 29.83 0.0
29 07:15 SE 10 10.00 Fair CLR 66.2 64.4 94% 29.83 0.0
29 06:55 SE 12 G 18 10.00 Fair CLR 66.2 64.4 94% 29.83 0.0
29 06:35 SE 10 10.00 Fair CLR 66.2 66.2 100% 29.83 0.0
29 06:15 SE 9 10.00 Fair CLR 68 66.2 94% 29.84 0.0
29 05:55 SE 12 10.00 Partly Cloudy SCT080 68 66.2 94% 29.81 0.0
29 05:35 SE 12 10.00 Overcast SCT025 OVC080 68 66.2 94% 29.82 0.0
29 05:15 SE 10 10.00 Mostly Cloudy BKN025 68 66.2 94% 29.83 0.0
29 04:55 SE 13 10.00 Partly Cloudy SCT027 68 66.2 94% 29.83 0.0
29 04:35 SE 12 10.00 Mostly Cloudy BKN029 68 66.2 94% 29.84 0.0
29 04:15 SE 10 10.00 Overcast OVC029 68 66.2 94% 29.87 0.0
29 03:55 SE 8 10.00 Thunderstorm in Vicinity SCT035 OVC100 68 66.2 94% 29.89 0.0
29 03:35 SE 9 10.00 Thunderstorm Light Rain in Vicinity SCT005 SCT065 OVC100 68 66.2 94% 29.89 0.0
29 03:15 SE 7 3.00 Thunderstorm Light Rain in Vicinity SCT004 SCT013 OVC060 68 66.2 94% 29.91 0.0
29 02:55 SE 3 10.00 Light Rain BKN070 68 66.2 94% 29.91 0.0
29 02:35 Calm 7.00 Thunderstorm Light Rain in Vicinity SCT070 BKN080 68 66.2 94% 29.9 0.0
29 02:15 E 8 10.00 Light Rain SCT110 69.8 66.2 88% 29.89 0.0
29 01:55 SE 6 10.00 Thunderstorm Light Rain in Vicinity BKN110 69.8 66.2 88% 29.92 0.0
29 01:35 SE 6 10.00 Thunderstorm SCT110 69.8 66.2 88% 29.91 0.0
29 01:15 SE 7 10.00 Fair CLR 69.8 66.2 88% 29.91 0.0
29 00:55 SE 7 10.00 Light Rain SCT060 SCT080 69.8 66.2 88% 29.92 0.0
29 00:35 SE 5 10.00 Rain CLR 71.6 64.4 78% 29.93 0.0
29 00:15 SE 7 10.00 Fair CLR 71.6 64.4 78% 29.91 0.0
28 23:35 SE 7 10.00 Fair CLR 73.4 64.4 74% 29.93 0.0
28 23:15 SE 9 G 16 10.00 Fair CLR 71.6 64.4 78% 29.92 0.0
28 22:55 SE 12 10.00 Fair CLR 71.6 64.4 78% 29.92 0.0
28 22:35 SE 8 10.00 Fair CLR 0 0 0% 0 0.0
28 22:15 S 7 10.00 Fair CLR 71.6 64.4 78% 29.95 0.0
28 21:55 SE 9 10.00 NULL NULL 0 0 0% 29.94 0.0
28 21:35 SE 10 10.00 Fair CLR 71.6 64.4 78% 29.95 0.0
28 21:15 SE 9 10.00 Fair CLR 71.6 64.4 78% 29.95 0.0
28 20:55 SE 10 10.00 Fair CLR 73.4 64.4 74% 29.94 0.0
28 20:35 SE 9 10.00 Fair CLR 73.4 64.4 74% 29.95 0.0
28 20:15 SE 7 10.00 Fair CLR 73.4 64.4 74% 29.95 0.0
28 19:55 SE 7 10.00 Fair CLR 73.4 62.6 69% 29.95 0.0
28 19:35 SE 9 10.00 Fair CLR 75.2 64.4 69% 77 29.94 0.0
28 19:15 SE 8 10.00 Fair CLR 75.2 64.4 69% 77 29.95 0.0
28 18:35 SE 9 10.00 Fair CLR 77 64.4 65% 79 29.96 0.0
28 18:15 SE 9 G 16 10.00 Fair CLR 78.8 64.4 61% 81 29.96 0.0
28 17:55 SE 7 10.00 Fair CLR 78.8 64.4 61% 81 29.98 0.0
28 17:35 SE 8 10.00 Fair CLR 78.8 64.4 61% 81 29.98 0.0
28 17:15 SE 9 10.00 Fair CLR 78.8 64.4 61% 81 29.98 0.0
28 16:55 SE 10 10.00 Fair CLR 78.8 64.4 61% 81 29.99 0.0
28 16:35 SE 9 10.00 Fair CLR 80.6 66.2 62% 83 29.99 0.0
28 16:15 S 5 G 9 10.00 Fair CLR 80.6 64.4 58% 82 30.01 0.0
Date Time (cdt) Wind (mph) Vis. (mi.) Weather Sky Cond. Air Dwpt Max. Min. Relative Humidity Wind Chill (°F) Heat Index (°F) altimeter (in) sea level (mb) 1 hr 3 hr 6 hr
6 hour
Temperature (ºF) Pressure Precipitation (in)